Time;durP1;ratioP1;P1;durP2;ratioP2;P2;SDS_P1;SDS_P2;PMS_P1;PMS_P2;Temp;Humidity;BMP_temperature;BMP_pressure;BME280_temperature;BME280_humidity;BME280_pressure;Samples;Min_cycle;Max_cycle;Signal;HPM_P1;HPM_P2
2022/06/11 00:01:38;;;;;;;23.95;4.90;;;15.40;99.90;;;;;;4969366;28;20042;-59
2022/06/11 00:04:08;;;;;;;29.65;6.03;;;15.40;99.90;;;;;;4963369;28;20051;-60
2022/06/11 00:06:37;;;;;;;23.73;3.97;;;15.30;99.90;;;;;;4968016;28;20074;-60
2022/06/11 00:09:05;;;;;;;26.48;4.78;;;15.30;99.90;;;;;;4967210;28;20047;-60
2022/06/11 00:11:32;;;;;;;27.08;4.05;;;15.40;99.90;;;;;;4967493;28;20100;-58
2022/06/11 00:13:58;;;;;;;19.83;3.63;;;15.40;99.90;;;;;;4967104;28;20055;-60
2022/06/11 00:16:25;;;;;;;18.15;4.55;;;15.40;99.90;;;;;;4967287;28;20050;-60
2022/06/11 00:18:54;;;;;;;19.13;4.07;;;15.40;99.90;;;;;;4967170;28;20062;-61
2022/06/11 00:21:21;;;;;;;22.15;4.82;;;15.40;99.90;;;;;;4967477;28;20477;-59
2022/06/11 00:23:48;;;;;;;19.52;4.75;;;15.40;99.90;;;;;;4967877;28;20498;-58
2022/06/11 00:26:15;;;;;;;27.77;5.45;;;15.40;99.90;;;;;;4960711;28;20094;-59
2022/06/11 00:28:42;;;;;;;31.77;4.45;;;15.40;99.90;;;;;;4969106;28;20210;-59
2022/06/11 00:31:10;;;;;;;22.73;3.88;;;15.40;99.90;;;;;;4968864;28;20074;-59
2022/06/11 00:33:37;;;;;;;24.42;3.88;;;15.30;99.90;;;;;;4968645;28;20145;-59
2022/06/11 00:36:05;;;;;;;17.98;3.78;;;15.30;99.90;;;;;;4968819;28;20081;-61
2022/06/11 00:38:32;;;;;;;26.70;3.70;;;15.20;99.90;;;;;;4968139;28;20082;-59
2022/06/11 00:40:59;;;;;;;22.70;4.38;;;15.30;99.90;;;;;;4960716;28;20043;-59
2022/06/11 00:43:29;;;;;;;23.80;4.75;;;15.20;99.90;;;;;;4968169;28;20157;-60
2022/06/11 00:46:08;;;;;;;20.48;4.50;;;15.20;99.90;;;;;;4968442;28;20051;-60
2022/06/11 00:48:36;;;;;;;25.95;4.55;;;15.20;99.90;;;;;;4968516;28;20392;-60
2022/06/11 00:51:10;;;;;;;23.17;4.10;;;15.20;99.90;;;;;;4967710;28;20331;-60
2022/06/11 00:53:57;;;;;;;22.13;4.15;;;15.20;99.90;;;;;;4966903;28;20137;-60
2022/06/11 00:56:30;;;;;;;31.17;5.00;;;15.10;99.90;;;;;;4992856;28;20065;-60
2022/06/11 00:58:59;;;;;;;26.63;5.80;;;15.10;99.90;;;;;;4961681;28;20142;-60
2022/06/11 01:01:27;;;;;;;21.98;4.05;;;15.00;99.90;;;;;;4966028;28;20494;-60
2022/06/11 01:03:56;;;;;;;33.47;5.10;;;14.90;99.90;;;;;;4966937;28;20093;-59
2022/06/11 01:06:45;;;;;;;34.97;4.53;;;14.90;99.90;;;;;;4967346;28;20070;-60
2022/06/11 01:09:17;;;;;;;24.33;4.22;;;14.90;99.90;;;;;;4968562;28;20142;-60
2022/06/11 01:11:44;;;;;;;19.30;4.15;;;15.00;99.90;;;;;;4966126;28;20134;-58
2022/06/11 01:14:23;;;;;;;19.00;4.05;;;15.00;99.90;;;;;;4968549;28;20494;-58
2022/06/11 01:17:29;;;;;;;21.60;6.55;;;14.90;99.90;;;;;;4930100;29;20126;-58
2022/06/11 01:20:21;;;;;;;24.98;4.28;;;14.80;99.90;;;;;;4942924;29;20366;-58
2022/06/11 01:23:03;;;;;;;20.02;3.85;;;14.80;99.90;;;;;;4929610;29;20126;-59
2022/06/11 01:25:39;;;;;;;22.73;3.72;;;14.80;99.90;;;;;;4930249;29;20047;-59
2022/06/11 01:28:17;;;;;;;21.10;3.58;;;14.80;99.90;;;;;;4930046;29;20139;-59
2022/06/11 01:30:45;;;;;;;27.88;4.57;;;14.80;99.90;;;;;;4932383;29;20059;-59
2022/06/11 01:33:21;;;;;;;16.48;4.28;;;14.80;99.90;;;;;;4932959;29;20130;-59
2022/06/11 01:36:11;;;;;;;13.13;2.95;;;14.80;99.90;;;;;;4960194;28;20119;-59
2022/06/11 01:38:41;;;;;;;27.92;3.85;;;14.80;99.90;;;;;;4932918;29;20395;-62
2022/06/11 01:41:21;;;;;;;30.38;4.68;;;14.80;99.90;;;;;;4936434;29;20123;-60
2022/06/11 01:43:49;;;;;;;28.02;6.35;;;14.70;99.90;;;;;;4932324;29;20072;-59
2022/06/11 01:46:25;;;;;;;25.98;5.22;;;14.60;99.90;;;;;;4955737;28;20411;-59
2022/06/11 01:49:13;;;;;;;14.82;4.68;;;14.60;99.90;;;;;;4932023;29;20500;-59
2022/06/11 01:52:15;;;;;;;13.00;3.17;;;14.60;99.90;;;;;;4935495;28;20083;-60
2022/06/11 01:55:17;;;;;;;21.25;4.80;;;14.60;99.90;;;;;;4925831;29;20154;-60
2022/06/11 01:58:02;;;;;;;22.20;3.80;;;14.60;99.90;;;;;;4927001;29;20126;-59
2022/06/11 02:00:36;;;;;;;21.80;4.35;;;14.60;99.90;;;;;;4936242;29;20074;-59
2022/06/11 02:03:09;;;;;;;22.85;4.53;;;14.60;99.90;;;;;;4929852;29;20079;-60
2022/06/11 02:06:09;;;;;;;30.48;3.80;;;14.60;99.90;;;;;;4952524;28;20135;-59
2022/06/11 02:08:54;;;;;;;19.30;3.20;;;14.50;99.90;;;;;;4964034;28;20135;-59
2022/06/11 02:11:45;;;;;;;25.45;4.00;;;14.50;99.90;;;;;;4935750;29;20048;-57
2022/06/11 02:14:19;;;;;;;20.63;3.55;;;14.50;99.90;;;;;;4962332;28;20083;-59
2022/06/11 02:16:54;;;;;;;17.40;4.35;;;14.50;99.90;;;;;;4960322;28;20139;-58
2022/06/11 02:19:36;;;;;;;32.00;4.30;;;14.50;99.90;;;;;;4961350;28;20517;-59
2022/06/11 02:22:10;;;;;;;24.25;4.22;;;14.50;99.90;;;;;;4961822;28;20059;-60
2022/06/11 02:24:42;;;;;;;21.40;4.07;;;14.50;99.90;;;;;;4936188;29;20054;-59
2022/06/11 02:27:14;;;;;;;20.80;4.50;;;14.50;99.90;;;;;;4935521;29;20075;-59
2022/06/11 02:29:41;;;;;;;20.13;3.58;;;14.40;99.90;;;;;;4933414;29;20044;-59
2022/06/11 02:32:14;;;;;;;31.88;4.93;;;14.40;99.90;;;;;;4958551;28;20079;-60
2022/06/11 02:34:55;;;;;;;21.77;4.50;;;14.40;99.90;;;;;;4953520;28;20441;-59
2022/06/11 02:37:33;;;;;;;32.00;5.53;;;14.40;99.90;;;;;;4953169;28;20252;-59
2022/06/11 02:40:04;;;;;;;26.95;4.30;;;14.30;99.90;;;;;;4935399;29;20519;-59
2022/06/11 02:42:31;;;;;;;23.75;4.47;;;14.30;99.90;;;;;;4932828;29;20499;-58
2022/06/11 02:44:57;;;;;;;20.58;4.68;;;14.30;99.90;;;;;;4932489;29;20051;-60
2022/06/11 02:47:24;;;;;;;27.40;5.45;;;14.20;99.90;;;;;;4932735;29;20476;-61
2022/06/11 02:49:51;;;;;;;23.15;5.60;;;14.10;99.90;;;;;;4932742;29;20047;-60
2022/06/11 02:52:20;;;;;;;15.90;3.83;;;14.20;99.90;;;;;;4932271;29;20253;-59
2022/06/11 02:54:49;;;;;;;17.48;3.78;;;14.10;99.90;;;;;;4926980;29;20144;-59
2022/06/11 02:57:20;;;;;;;23.83;4.00;;;14.00;99.90;;;;;;4956517;28;20051;-59
2022/06/11 02:59:47;;;;;;;20.95;3.70;;;14.00;99.90;;;;;;4932461;29;20086;-59
2022/06/11 03:02:14;;;;;;;24.60;4.40;;;14.00;99.90;;;;;;4930615;29;20134;-59
2022/06/11 03:04:41;;;;;;;36.42;6.82;;;13.90;99.90;;;;;;4932513;29;20047;-59
2022/06/11 03:07:08;;;;;;;20.60;3.20;;;14.00;99.90;;;;;;4932220;29;20076;-59
2022/06/11 03:09:36;;;;;;;16.90;3.47;;;14.00;99.90;;;;;;4932438;29;20110;-58
2022/06/11 03:12:04;;;;;;;21.73;3.80;;;14.00;99.90;;;;;;4931881;29;20142;-59
2022/06/11 03:14:30;;;;;;;24.45;4.30;;;14.00;99.90;;;;;;4956916;28;20080;-59
2022/06/11 03:16:57;;;;;;;30.65;5.22;;;14.00;99.90;;;;;;4971015;28;20141;-59
2022/06/11 03:19:24;;;;;;;19.27;3.92;;;14.00;99.90;;;;;;4968420;28;20093;-57
2022/06/11 03:21:56;;;;;;;24.92;4.18;;;14.00;99.90;;;;;;4985566;28;20078;-59
2022/06/11 03:24:23;;;;;;;24.27;4.18;;;13.90;99.90;;;;;;4970594;28;20078;-59
2022/06/11 03:26:50;;;;;;;26.75;5.05;;;13.90;99.90;;;;;;4970325;28;20061;-59
2022/06/11 03:29:18;;;;;;;21.30;3.65;;;13.90;99.90;;;;;;4970503;28;20089;-59
2022/06/11 03:31:45;;;;;;;22.33;3.83;;;13.90;99.90;;;;;;4969985;28;20082;-58
2022/06/11 03:34:12;;;;;;;30.75;5.93;;;13.80;99.90;;;;;;4970456;28;20051;-59
2022/06/11 03:36:40;;;;;;;23.30;4.57;;;13.80;99.90;;;;;;4970067;28;20082;-60
2022/06/11 03:39:07;;;;;;;27.70;4.70;;;13.80;99.90;;;;;;4970412;28;20054;-58
2022/06/11 03:41:33;;;;;;;23.88;4.30;;;13.70;99.90;;;;;;4968800;28;20074;-60
2022/06/11 03:44:00;;;;;;;21.02;4.10;;;13.70;99.90;;;;;;4992888;28;20075;-58
2022/06/11 03:46:29;;;;;;;18.48;4.88;;;13.70;99.90;;;;;;4970314;28;20113;-58
2022/06/11 03:48:56;;;;;;;22.33;5.47;;;13.80;99.90;;;;;;4969964;28;20473;-58
2022/06/11 03:51:23;;;;;;;22.15;4.45;;;13.80;99.90;;;;;;4970311;28;20062;-58
2022/06/11 03:53:49;;;;;;;27.40;3.67;;;13.70;99.90;;;;;;4968979;28;20074;-58
2022/06/11 03:56:16;;;;;;;16.52;4.20;;;13.70;99.90;;;;;;4969754;28;20093;-59
2022/06/11 03:58:44;;;;;;;21.63;3.47;;;13.70;99.90;;;;;;4969911;28;20134;-59
2022/06/11 04:01:16;;;;;;;22.95;4.05;;;13.70;99.90;;;;;;4970418;28;20078;-59
2022/06/11 04:03:57;;;;;;;27.77;4.80;;;13.70;99.90;;;;;;4966936;28;20039;-59
2022/06/11 04:06:27;;;;;;;19.02;3.60;;;13.70;99.90;;;;;;4964118;28;20207;-59
2022/06/11 04:08:54;;;;;;;24.50;4.45;;;13.70;99.90;;;;;;4967739;28;20438;-58
2022/06/11 04:11:20;;;;;;;23.38;6.05;;;13.70;99.90;;;;;;4969783;28;20162;-59
2022/06/11 04:13:48;;;;;;;20.10;3.80;;;13.60;99.90;;;;;;4969286;28;20131;-59
2022/06/11 04:16:22;;;;;;;18.67;3.88;;;13.60;99.90;;;;;;4969640;28;20514;-59
2022/06/11 04:18:49;;;;;;;21.00;4.53;;;13.60;99.90;;;;;;4965672;28;20058;-59
2022/06/11 04:21:17;;;;;;;21.17;3.42;;;13.60;99.90;;;;;;4972386;28;20066;-59
2022/06/11 04:23:45;;;;;;;28.85;4.95;;;13.60;99.90;;;;;;4969288;28;20364;-59
2022/06/11 04:26:15;;;;;;;27.55;5.47;;;13.70;99.90;;;;;;4969210;28;20086;-58
2022/06/11 04:28:42;;;;;;;18.27;3.83;;;13.70;99.90;;;;;;4969556;28;20046;-58
2022/06/11 04:31:09;;;;;;;17.30;3.10;;;13.70;99.90;;;;;;4969004;28;20130;-59
2022/06/11 04:33:36;;;;;;;21.30;4.57;;;13.70;99.90;;;;;;4969203;28;20058;-60
2022/06/11 04:36:03;;;;;;;22.95;3.67;;;13.60;99.90;;;;;;4968953;28;20550;-59
2022/06/11 04:38:30;;;;;;;26.77;4.55;;;13.70;99.90;;;;;;4969419;28;20075;-58
2022/06/11 04:40:57;;;;;;;17.15;3.15;;;13.70;99.90;;;;;;4969099;28;20090;-58
2022/06/11 04:43:23;;;;;;;19.10;5.15;;;13.70;99.90;;;;;;4967781;28;20055;-59
2022/06/11 04:45:50;;;;;;;26.77;4.50;;;13.70;99.90;;;;;;4968711;28;20051;-60
2022/06/11 04:48:17;;;;;;;20.45;3.72;;;13.60;99.90;;;;;;4969187;28;20126;-59
2022/06/11 04:50:44;;;;;;;29.48;5.90;;;13.60;99.90;;;;;;4967239;28;20054;-59
2022/06/11 04:53:11;;;;;;;22.13;4.88;;;13.60;99.90;;;;;;4968120;28;20085;-64
2022/06/11 04:55:38;;;;;;;17.00;3.83;;;13.60;99.90;;;;;;4968359;28;20070;-63
2022/06/11 04:58:05;;;;;;;22.63;4.22;;;13.70;99.90;;;;;;4969191;28;20078;-60
2022/06/11 05:00:32;;;;;;;21.05;4.53;;;13.80;99.90;;;;;;4968538;28;20090;-60
2022/06/11 05:02:59;;;;;;;24.05;4.57;;;13.80;99.90;;;;;;4968666;28;20074;-59
2022/06/11 05:05:26;;;;;;;16.30;3.65;;;13.80;99.90;;;;;;4967704;28;20426;-59
2022/06/11 05:07:53;;;;;;;24.05;4.57;;;13.70;99.90;;;;;;4968604;28;20042;-59
2022/06/11 05:10:21;;;;;;;30.20;4.82;;;13.80;99.90;;;;;;4966996;28;20094;-59
2022/06/11 05:12:48;;;;;;;25.98;4.05;;;13.80;99.90;;;;;;4968782;28;20054;-59
2022/06/11 05:15:14;;;;;;;28.92;4.70;;;13.90;99.90;;;;;;4968286;28;20062;-60
2022/06/11 05:17:41;;;;;;;23.92;4.38;;;14.10;99.90;;;;;;4968570;28;20134;-59
2022/06/11 05:20:09;;;;;;;24.27;4.70;;;14.10;99.90;;;;;;4968725;28;20102;-59
2022/06/11 05:22:36;;;;;;;22.33;4.22;;;14.10;99.90;;;;;;4968464;28;20054;-60
2022/06/11 05:25:04;;;;;;;21.88;3.50;;;14.10;99.90;;;;;;4968102;28;20051;-59
2022/06/11 05:27:30;;;;;;;20.85;5.60;;;14.10;99.90;;;;;;4968502;28;20066;-60
2022/06/11 05:29:59;;;;;;;25.33;4.20;;;14.10;99.90;;;;;;4968227;28;20093;-59
2022/06/11 05:32:29;;;;;;;16.02;3.65;;;14.20;99.90;;;;;;4968425;28;20062;-59
2022/06/11 05:34:57;;;;;;;18.67;3.65;;;14.20;99.90;;;;;;4968211;28;20043;-60
2022/06/11 05:37:24;;;;;;;26.25;3.78;;;14.20;99.90;;;;;;4961842;28;20109;-59
2022/06/11 05:39:51;;;;;;;23.77;3.35;;;14.30;99.90;;;;;;4968398;28;20130;-59
2022/06/11 05:42:18;;;;;;;17.48;3.25;;;14.30;99.90;;;;;;4967647;28;20075;-60
2022/06/11 05:44:45;;;;;;;18.33;3.88;;;14.30;99.90;;;;;;4968477;28;20086;-59
2022/06/11 05:47:13;;;;;;;22.23;3.65;;;14.40;99.90;;;;;;4967959;28;20126;-59
2022/06/11 05:49:42;;;;;;;20.00;4.25;;;14.40;99.90;;;;;;4966998;28;20078;-59
2022/06/11 05:52:16;;;;;;;25.83;3.42;;;14.50;99.90;;;;;;4966425;28;20522;-59
2022/06/11 05:54:43;;;;;;;23.13;6.30;;;14.50;99.90;;;;;;4965041;28;20078;-60
2022/06/11 05:57:12;;;;;;;22.23;4.25;;;14.60;99.90;;;;;;4966728;28;20476;-59
2022/06/11 05:59:43;;;;;;;19.77;3.20;;;14.70;99.90;;;;;;4966836;28;20849;-59
2022/06/11 06:02:11;;;;;;;11.27;2.83;;;14.70;99.90;;;;;;4963005;28;20050;-59
2022/06/11 06:04:38;;;;;;;16.48;2.47;;;14.80;99.90;;;;;;4968012;28;20137;-59
2022/06/11 06:07:05;;;;;;;19.73;3.15;;;14.90;99.90;;;;;;4963473;28;20047;-58
2022/06/11 06:09:32;;;;;;;24.48;3.50;;;14.90;99.90;;;;;;4965685;28;20510;-60
2022/06/11 06:11:59;;;;;;;26.50;5.15;;;14.90;99.90;;;;;;4966623;28;20474;-59
2022/06/11 06:14:26;;;;;;;20.92;2.97;;;15.00;99.90;;;;;;4967707;28;20502;-61
2022/06/11 06:16:53;;;;;;;18.50;3.67;;;15.10;99.90;;;;;;4970250;28;20057;-59
2022/06/11 06:19:20;;;;;;;21.05;3.13;;;15.10;99.90;;;;;;4971575;28;20082;-58
2022/06/11 06:21:46;;;;;;;20.30;4.03;;;15.10;99.90;;;;;;4971202;28;20565;-60
2022/06/11 06:24:13;;;;;;;22.17;3.58;;;15.20;99.90;;;;;;4971474;28;20125;-60
2022/06/11 06:26:40;;;;;;;23.23;4.13;;;15.30;99.90;;;;;;4971406;28;20147;-60
2022/06/11 06:29:07;;;;;;;24.25;5.10;;;15.30;99.90;;;;;;4968660;28;20141;-58
2022/06/11 06:31:34;;;;;;;20.10;3.35;;;15.40;99.90;;;;;;4971281;28;20097;-60
2022/06/11 06:34:01;;;;;;;20.65;4.28;;;15.40;99.90;;;;;;4971381;28;20414;-59
2022/06/11 06:36:29;;;;;;;19.52;3.97;;;15.40;99.90;;;;;;4970805;28;20093;-58
2022/06/11 06:38:55;;;;;;;25.10;4.68;;;15.40;99.90;;;;;;4971355;28;20078;-58
2022/06/11 06:41:22;;;;;;;17.70;3.75;;;15.50;99.90;;;;;;4970930;28;20093;-59
2022/06/11 06:43:50;;;;;;;21.00;3.70;;;15.50;99.90;;;;;;4970730;28;20047;-59
2022/06/11 06:46:17;;;;;;;17.70;3.25;;;15.50;99.90;;;;;;4967966;28;20043;-59
2022/06/11 06:48:44;;;;;;;18.98;3.30;;;15.50;99.90;;;;;;4970738;28;20533;-59
2022/06/11 06:51:11;;;;;;;21.13;4.00;;;15.50;99.90;;;;;;4969764;28;20109;-59
2022/06/11 06:53:39;;;;;;;18.33;3.20;;;15.60;99.90;;;;;;4970806;28;20051;-61
2022/06/11 06:56:06;;;;;;;22.30;3.25;;;15.70;99.90;;;;;;4970388;28;20078;-59
2022/06/11 06:58:33;;;;;;;16.65;2.92;;;15.80;99.90;;;;;;4971473;28;20082;-59
2022/06/11 07:01:01;;;;;;;24.33;3.53;;;15.80;99.90;;;;;;4971035;28;20171;-59
2022/06/11 07:03:27;;;;;;;20.98;3.70;;;15.90;99.90;;;;;;4971089;28;20137;-60
2022/06/11 07:05:54;;;;;;;8.30;2.47;;;15.90;99.90;;;;;;4970462;28;20522;-60
2022/06/11 07:08:21;;;;;;;14.00;3.42;;;15.90;99.90;;;;;;4970808;28;20157;-60
2022/06/11 07:10:49;;;;;;;20.98;3.13;;;16.00;99.90;;;;;;4970542;28;20050;-58
2022/06/11 07:13:16;;;;;;;19.35;3.40;;;16.00;99.90;;;;;;4970453;28;20207;-60
2022/06/11 07:15:43;;;;;;;15.27;2.88;;;16.10;99.90;;;;;;4970265;28;20050;-59
2022/06/11 07:18:20;;;;;;;19.83;3.47;;;16.20;99.90;;;;;;4969079;28;20045;-59
2022/06/11 07:20:47;;;;;;;18.67;2.70;;;16.20;99.90;;;;;;4985176;28;20144;-60
2022/06/11 07:23:16;;;;;;;17.05;2.47;;;16.20;99.90;;;;;;4970300;28;20075;-59
2022/06/11 07:25:43;;;;;;;15.80;4.72;;;16.30;99.90;;;;;;4969956;28;20463;-60
2022/06/11 07:28:18;;;;;;;19.13;3.42;;;16.40;99.90;;;;;;4623835;28;10000576;-60
2022/06/11 07:30:45;;;;;;;12.43;3.15;;;16.40;99.90;;;;;;4967147;28;20505;-58
2022/06/11 07:33:14;;;;;;;11.52;3.25;;;16.40;99.90;;;;;;4967195;28;20126;-59
2022/06/11 07:35:41;;;;;;;17.60;3.35;;;16.50;99.90;;;;;;4996899;28;20058;-58
2022/06/11 07:38:10;;;;;;;15.25;2.83;;;16.50;99.90;;;;;;4966831;28;20087;-59
2022/06/11 07:40:37;;;;;;;19.75;3.78;;;16.60;99.90;;;;;;4966057;28;20142;-59
2022/06/11 07:43:06;;;;;;;20.30;3.67;;;16.70;99.90;;;;;;4966733;28;20088;-59
2022/06/11 07:45:38;;;;;;;16.02;2.67;;;16.80;99.90;;;;;;4966673;28;20228;-59
2022/06/11 07:48:05;;;;;;;21.13;5.22;;;16.90;99.90;;;;;;4966531;28;20051;-59
2022/06/11 07:50:34;;;;;;;13.75;2.83;;;16.90;99.90;;;;;;4966960;28;20046;-59
2022/06/11 07:53:02;;;;;;;17.30;2.72;;;16.90;99.90;;;;;;4965808;28;20058;-59
2022/06/11 07:55:30;;;;;;;15.15;3.05;;;17.00;99.90;;;;;;4966157;28;20086;-59
2022/06/11 07:57:57;;;;;;;21.50;4.30;;;17.00;99.90;;;;;;4966332;28;20206;-59
2022/06/11 08:00:29;;;;;;;15.27;3.08;;;17.00;99.90;;;;;;4966074;28;20423;-59
2022/06/11 08:02:56;;;;;;;13.20;2.67;;;17.00;99.90;;;;;;4966251;28;20150;-59
2022/06/11 08:05:23;;;;;;;15.25;2.78;;;17.00;99.90;;;;;;4966031;28;20418;-60
2022/06/11 08:07:53;;;;;;;13.90;2.47;;;17.10;99.90;;;;;;4966684;28;20105;-60
2022/06/11 08:10:22;;;;;;;15.32;2.50;;;17.20;99.90;;;;;;4994068;28;20085;-61
2022/06/11 08:12:48;;;;;;;12.65;2.53;;;17.30;99.90;;;;;;4966328;28;20046;-60
2022/06/11 08:15:15;;;;;;;14.27;2.53;;;17.40;99.90;;;;;;4965519;28;20090;-58
2022/06/11 08:17:42;;;;;;;10.02;2.15;;;17.50;99.90;;;;;;4965761;28;20057;-60
2022/06/11 08:20:16;;;;;;;18.25;3.20;;;17.50;99.90;;;;;;4993281;28;20153;-58
2022/06/11 08:22:43;;;;;;;11.40;2.47;;;17.50;99.90;;;;;;4965413;28;20347;-61
2022/06/11 08:25:10;;;;;;;14.65;2.60;;;17.60;99.90;;;;;;4963624;28;20267;-58
2022/06/11 08:27:37;;;;;;;14.20;2.80;;;17.70;99.90;;;;;;4962508;28;20157;-59
2022/06/11 08:30:04;;;;;;;16.05;3.75;;;17.70;99.90;;;;;;4965437;28;20082;-58
2022/06/11 08:32:31;;;;;;;13.40;3.53;;;17.80;99.90;;;;;;4959157;28;20076;-58
2022/06/11 08:34:58;;;;;;;18.80;3.72;;;17.90;99.90;;;;;;4965164;28;20445;-59
2022/06/11 08:37:25;;;;;;;17.88;3.67;;;18.00;99.90;;;;;;4965939;28;20133;-59
2022/06/11 08:39:52;;;;;;;11.93;2.08;;;18.00;99.90;;;;;;4965341;28;20042;-59
2022/06/11 08:42:31;;;;;;;10.48;2.50;;;18.10;99.90;;;;;;4965294;28;20153;-59
2022/06/11 08:45:02;;;;;;;9.82;3.05;;;18.00;99.90;;;;;;4965335;28;20541;-59
2022/06/11 08:47:33;;;;;;;17.33;3.60;;;18.10;99.90;;;;;;4964002;28;20055;-59
2022/06/11 08:50:00;;;;;;;19.80;5.10;;;18.20;99.90;;;;;;4962426;28;20554;-59
2022/06/11 08:52:28;;;;;;;9.15;2.70;;;18.30;99.90;;;;;;4963166;28;20051;-59
2022/06/11 08:54:55;;;;;;;14.50;2.72;;;18.30;99.90;;;;;;4965291;28;20054;-58
2022/06/11 08:57:29;;;;;;;8.23;2.10;;;18.30;99.90;;;;;;4963904;28;20105;-59
2022/06/11 09:00:06;;;;;;;8.65;1.90;;;18.30;99.90;;;;;;4960138;28;20051;-58
2022/06/11 09:02:45;;;;;;;15.55;2.60;;;18.30;99.90;;;;;;4964227;28;20141;-59
2022/06/11 09:05:31;;;;;;;5.80;1.98;;;18.30;99.90;;;;;;4991416;28;20050;-56
2022/06/11 09:08:04;;;;;;;14.10;3.40;;;18.40;99.90;;;;;;4964855;28;20089;-57
2022/06/11 09:11:04;;;;;;;13.77;2.72;;;18.40;99.90;;;;;;4964008;28;20053;-57
2022/06/11 09:13:39;;;;;;;14.70;2.28;;;18.50;99.90;;;;;;4959800;28;20112;-56
2022/06/11 09:16:15;;;;;;;15.98;3.53;;;18.50;99.90;;;;;;4962226;28;20097;-59
2022/06/11 09:18:57;;;;;;;9.60;2.00;;;18.60;99.90;;;;;;4965308;28;20051;-58
2022/06/11 09:21:27;;;;;;;10.90;2.28;;;18.90;99.90;;;;;;4963397;28;20557;-57
2022/06/11 09:24:00;;;;;;;11.25;2.67;;;19.00;99.90;;;;;;4961200;28;20142;-57
2022/06/11 09:26:36;;;;;;;13.07;3.25;;;19.00;99.90;;;;;;4964138;28;20081;-56
2022/06/11 09:29:18;;;;;;;11.65;3.13;;;19.20;99.90;;;;;;4961872;28;20510;-58
2022/06/11 09:31:46;;;;;;;12.23;2.38;;;19.30;99.90;;;;;;4985329;28;20070;-57
2022/06/11 09:34:45;;;;;;;14.35;3.22;;;19.20;99.90;;;;;;4962898;28;20043;-58
2022/06/11 09:37:13;;;;;;;10.15;2.63;;;19.30;98.70;;;;;;4967452;28;20043;-58
2022/06/11 09:39:50;;;;;;;7.05;1.65;;;19.40;99.90;;;;;;4961261;28;20181;-58
2022/06/11 09:42:46;;;;;;;8.43;2.13;;;19.50;99.90;;;;;;4956833;28;20054;-58
2022/06/11 09:45:30;;;;;;;16.83;2.13;;;19.50;96.80;;;;;;4957718;28;20391;-58
2022/06/11 09:48:18;;;;;;;8.40;1.98;;;19.50;97.50;;;;;;4960106;28;20097;-58
2022/06/11 09:50:51;;;;;;;19.13;3.70;;;19.70;98.80;;;;;;4962856;28;20141;-55
2022/06/11 09:53:30;;;;;;;9.63;1.95;;;19.80;96.30;;;;;;4966456;28;20086;-58
2022/06/11 09:56:16;;;;;;;17.80;2.63;;;19.90;97.80;;;;;;4967784;28;20082;-58
2022/06/11 09:58:48;;;;;;;10.10;2.50;;;20.00;95.90;;;;;;4994000;28;20051;-58
2022/06/11 10:01:21;;;;;;;11.93;1.90;;;20.10;95.30;;;;;;4967565;28;20159;-56
2022/06/11 10:03:53;;;;;;;5.23;1.60;;;20.30;97.20;;;;;;4996743;28;20055;-58
2022/06/11 10:06:25;;;;;;;13.50;2.60;;;20.40;95.00;;;;;;4966040;28;20066;-58
2022/06/11 10:08:54;;;;;;;9.55;1.63;;;20.60;94.80;;;;;;4967288;28;20078;-59
2022/06/11 10:11:30;;;;;;;8.40;1.98;;;20.80;94.80;;;;;;4966361;28;20066;-55
2022/06/11 10:17:16;;;;;;;8.90;1.92;;;21.10;94.90;;;;;;4966990;28;20051;-58
2022/06/11 10:19:49;;;;;;;6.72;1.80;;;21.00;94.90;;;;;;4967892;28;20557;-58
2022/06/11 10:22:17;;;;;;;12.25;2.58;;;21.20;96.00;;;;;;4968407;28;20057;-59
2022/06/11 10:25:04;;;;;;;6.07;1.50;;;21.40;94.00;;;;;;4967959;28;20082;-58
2022/06/11 10:27:35;;;;;;;9.32;3.42;;;21.20;90.30;;;;;;4997663;28;20074;-60
2022/06/11 10:30:26;;;;;;;13.02;2.25;;;21.10;89.40;;;;;;4995203;28;20637;-58
2022/06/11 10:32:53;;;;;;;14.43;2.70;;;20.90;91.20;;;;;;4966559;28;20057;-59
2022/06/11 10:35:22;;;;;;;8.05;1.95;;;20.80;93.80;;;;;;4994921;28;20129;-58
2022/06/11 10:38:17;;;;;;;9.93;1.85;;;21.20;93.30;;;;;;4966521;28;20082;-58
2022/06/11 10:40:46;;;;;;;18.77;3.85;;;21.10;91.70;;;;;;4963562;28;20061;-58
2022/06/11 10:43:24;;;;;;;9.15;1.70;;;21.00;93.00;;;;;;4966817;28;20113;-58
2022/06/11 10:45:52;;;;;;;10.00;1.77;;;21.40;92.60;;;;;;4966886;28;20093;-58
2022/06/11 10:48:20;;;;;;;10.45;2.83;;;21.50;92.10;;;;;;4967545;28;20085;-58
2022/06/11 10:50:47;;;;;;;11.02;2.30;;;21.40;90.90;;;;;;4965982;28;20364;-58
2022/06/11 10:53:30;;;;;;;10.10;1.98;;;21.60;92.50;;;;;;4966345;28;20074;-58
2022/06/11 10:56:05;;;;;;;8.25;1.92;;;21.70;87.60;;;;;;4964705;28;20568;-59
2022/06/11 10:58:42;;;;;;;9.73;1.55;;;21.80;90.70;;;;;;4967747;28;20065;-57
2022/06/11 11:01:13;;;;;;;8.35;2.30;;;21.70;89.80;;;;;;4964992;28;20533;-58
2022/06/11 11:03:46;;;;;;;18.05;2.75;;;21.50;90.20;;;;;;4964817;28;20834;-59
2022/06/11 11:06:29;;;;;;;7.53;1.67;;;21.50;89.80;;;;;;4964340;28;20552;-58
2022/06/11 11:08:58;;;;;;;6.68;1.70;;;21.60;89.90;;;;;;4967793;28;20177;-59
2022/06/11 11:11:26;;;;;;;10.35;1.73;;;21.80;87.00;;;;;;4967682;28;20049;-56
2022/06/11 11:14:07;;;;;;;9.25;2.53;;;21.70;90.10;;;;;;4966464;28;20051;-58
2022/06/11 11:16:36;;;;;;;12.57;2.17;;;21.50;87.00;;;;;;4993500;28;20133;-57
2022/06/11 11:19:21;;;;;;;10.60;1.77;;;21.40;87.70;;;;;;4966518;28;20138;-59
2022/06/11 11:22:03;;;;;;;11.73;1.90;;;21.00;85.90;;;;;;4962606;28;20103;-60
2022/06/11 11:24:38;;;;;;;12.82;1.75;;;21.00;86.80;;;;;;4966875;28;20130;-57
2022/06/11 11:27:22;;;;;;;8.80;1.63;;;21.00;86.00;;;;;;4994002;28;20765;-59
2022/06/11 11:29:53;;;;;;;7.90;2.08;;;21.00;85.80;;;;;;4964385;28;20229;-59
2022/06/11 11:32:49;;;;;;;6.22;1.60;;;21.00;89.60;;;;;;4964695;28;20054;-59
2022/06/11 11:35:22;;;;;;;8.95;1.83;;;20.90;87.50;;;;;;4958127;28;20046;-58
2022/06/11 11:38:03;;;;;;;8.68;1.83;;;20.80;89.00;;;;;;4967338;28;20090;-60
2022/06/11 11:40:35;;;;;;;8.38;1.73;;;20.70;88.80;;;;;;4966028;28;20042;-60
2022/06/11 11:43:04;;;;;;;10.63;2.35;;;20.60;88.60;;;;;;4966133;28;20133;-57
2022/06/11 11:45:43;;;;;;;9.82;2.35;;;20.50;90.60;;;;;;4966079;28;20561;-58
2022/06/11 11:48:18;;;;;;;8.30;1.73;;;20.50;90.40;;;;;;4974144;28;20117;-58
2022/06/11 11:50:50;;;;;;;11.55;1.90;;;20.50;91.30;;;;;;4964641;28;20058;-58
2022/06/11 11:53:23;;;;;;;7.63;1.67;;;20.70;91.20;;;;;;4964127;28;20074;-60
2022/06/11 11:56:05;;;;;;;8.63;1.80;;;20.90;90.90;;;;;;4996111;28;20081;-56
2022/06/11 11:58:35;;;;;;;7.63;1.90;;;21.10;87.00;;;;;;4967008;28;20039;-57
2022/06/11 12:01:05;;;;;;;10.38;2.45;;;20.90;89.00;;;;;;4997134;28;20514;-58
2022/06/11 12:03:38;;;;;;;10.90;2.28;;;21.00;90.30;;;;;;4996303;28;20109;-60
2022/06/11 12:06:06;;;;;;;15.60;4.35;;;21.10;90.70;;;;;;4966019;28;20764;-58
2022/06/11 12:08:41;;;;;;;6.65;2.22;;;21.30;91.20;;;;;;4965537;28;20070;-58
2022/06/11 12:11:33;;;;;;;7.97;1.50;;;21.40;90.20;;;;;;4961308;28;20133;-58
2022/06/11 12:14:18;;;;;;;8.60;2.03;;;21.40;89.00;;;;;;4965327;28;20047;-59
2022/06/11 12:16:53;;;;;;;13.23;2.80;;;21.50;87.90;;;;;;4966165;28;20137;-57
2022/06/11 12:19:20;;;;;;;9.05;2.10;;;21.40;89.50;;;;;;4987362;28;20507;-59
2022/06/11 12:21:51;;;;;;;11.15;2.33;;;21.50;90.00;;;;;;4966380;28;20120;-57
2022/06/11 12:24:24;;;;;;;12.57;2.47;;;21.50;90.30;;;;;;4996974;28;20082;-59
2022/06/11 12:26:54;;;;;;;9.15;2.63;;;21.50;90.90;;;;;;4966430;28;20050;-58
2022/06/11 12:29:41;;;;;;;12.35;2.05;;;21.80;91.80;;;;;;4964068;28;20086;-57
2022/06/11 12:32:16;;;;;;;9.23;1.77;;;22.00;90.70;;;;;;4961807;28;20153;-57
2022/06/11 12:34:43;;;;;;;11.20;2.60;;;22.20;88.40;;;;;;4987955;28;20170;-57
2022/06/11 12:37:32;;;;;;;9.45;1.95;;;22.30;85.80;;;;;;4965547;28;20137;-59
2022/06/11 12:40:20;;;;;;;12.02;2.80;;;22.40;87.20;;;;;;4989539;28;20046;-58
2022/06/11 12:42:56;;;;;;;8.75;2.58;;;22.50;87.00;;;;;;4969939;28;20431;-59
2022/06/11 12:45:40;;;;;;;11.85;2.70;;;22.40;88.30;;;;;;4963551;28;20565;-58
2022/06/11 12:48:30;;;;;;;11.48;1.90;;;22.20;83.40;;;;;;4964672;28;20502;-59
2022/06/11 12:51:28;;;;;;;8.32;1.67;;;22.40;84.60;;;;;;4964066;28;20476;-59
2022/06/11 12:54:28;;;;;;;7.63;1.90;;;22.50;84.80;;;;;;4964229;28;20074;-59
2022/06/11 12:57:12;;;;;;;11.25;2.70;;;22.50;86.80;;;;;;4920478;28;20511;-59
2022/06/11 12:59:57;;;;;;;8.32;2.10;;;22.50;87.30;;;;;;4964062;28;20163;-59
2022/06/11 13:02:32;;;;;;;11.00;2.03;;;22.70;84.70;;;;;;4991279;28;20141;-60
2022/06/11 13:05:17;;;;;;;10.90;2.00;;;22.90;86.00;;;;;;4986230;28;20190;-59
2022/06/11 13:08:09;;;;;;;11.98;2.20;;;23.20;82.80;;;;;;4963986;28;20082;-60